sensor_id;sensor_type;location;lat;lon;timestamp;temperature;humidity
4530;DHT22;2277;51.626;7.516;2023-07-20T00:00:53;20.60;99.90
4530;DHT22;2277;51.626;7.516;2023-07-20T00:03:20;20.60;99.90
4530;DHT22;2277;51.626;7.516;2023-07-20T00:05:48;20.60;99.90
4530;DHT22;2277;51.626;7.516;2023-07-20T00:08:15;20.50;99.90
4530;DHT22;2277;51.626;7.516;2023-07-20T00:10:41;20.50;99.90
4530;DHT22;2277;51.626;7.516;2023-07-20T00:13:07;20.60;99.90
4530;DHT22;2277;51.626;7.516;2023-07-20T00:15:33;20.50;99.90
4530;DHT22;2277;51.626;7.516;2023-07-20T00:17:58;20.50;99.90
4530;DHT22;2277;51.626;7.516;2023-07-20T00:20:24;20.50;99.90
4530;DHT22;2277;51.626;7.516;2023-07-20T00:22:53;20.50;99.90
4530;DHT22;2277;51.626;7.516;2023-07-20T00:25:20;20.50;99.90
4530;DHT22;2277;51.626;7.516;2023-07-20T00:27:46;20.50;99.90
4530;DHT22;2277;51.626;7.516;2023-07-20T00:30:12;20.50;99.90
4530;DHT22;2277;51.626;7.516;2023-07-20T00:32:37;20.50;99.90
4530;DHT22;2277;51.626;7.516;2023-07-20T00:35:03;20.50;99.90
4530;DHT22;2277;51.626;7.516;2023-07-20T00:37:29;20.50;99.90
4530;DHT22;2277;51.626;7.516;2023-07-20T00:39:55;20.50;99.90
4530;DHT22;2277;51.626;7.516;2023-07-20T00:42:20;20.50;99.90
4530;DHT22;2277;51.626;7.516;2023-07-20T00:44:46;20.50;99.90
4530;DHT22;2277;51.626;7.516;2023-07-20T00:47:11;20.50;99.90
4530;DHT22;2277;51.626;7.516;2023-07-20T00:49:38;20.50;99.90
4530;DHT22;2277;51.626;7.516;2023-07-20T00:52:06;20.50;99.90
4530;DHT22;2277;51.626;7.516;2023-07-20T00:54:33;20.50;99.90
4530;DHT22;2277;51.626;7.516;2023-07-20T00:57:01;20.40;99.90
4530;DHT22;2277;51.626;7.516;2023-07-20T00:59:27;20.40;99.90
4530;DHT22;2277;51.626;7.516;2023-07-20T01:01:53;20.40;99.90
4530;DHT22;2277;51.626;7.516;2023-07-20T01:04:19;20.30;99.90
4530;DHT22;2277;51.626;7.516;2023-07-20T01:07:16;20.30;99.90
4530;DHT22;2277;51.626;7.516;2023-07-20T01:10:06;20.30;99.90
4530;DHT22;2277;51.626;7.516;2023-07-20T01:12:40;20.40;99.90
4530;DHT22;2277;51.626;7.516;2023-07-20T01:15:07;20.40;99.90
4530;DHT22;2277;51.626;7.516;2023-07-20T01:17:34;20.40;99.90
4530;DHT22;2277;51.626;7.516;2023-07-20T01:19:59;20.40;99.90
4530;DHT22;2277;51.626;7.516;2023-07-20T01:25:21;20.40;99.90
4530;DHT22;2277;51.626;7.516;2023-07-20T01:33:38;20.30;99.90
4530;DHT22;2277;51.626;7.516;2023-07-20T01:36:06;20.30;99.90
4530;DHT22;2277;51.626;7.516;2023-07-20T01:38:32;20.30;99.90
4530;DHT22;2277;51.626;7.516;2023-07-20T01:40:58;20.30;99.90
4530;DHT22;2277;51.626;7.516;2023-07-20T01:43:24;20.30;99.90
4530;DHT22;2277;51.626;7.516;2023-07-20T01:45:50;20.30;99.90
4530;DHT22;2277;51.626;7.516;2023-07-20T01:48:15;20.30;99.90
4530;DHT22;2277;51.626;7.516;2023-07-20T01:50:41;20.30;99.90
4530;DHT22;2277;51.626;7.516;2023-07-20T01:53:07;20.30;99.90
4530;DHT22;2277;51.626;7.516;2023-07-20T01:55:32;20.30;99.90
4530;DHT22;2277;51.626;7.516;2023-07-20T01:57:58;20.30;99.90
4530;DHT22;2277;51.626;7.516;2023-07-20T02:00:25;20.30;99.90
4530;DHT22;2277;51.626;7.516;2023-07-20T02:02:51;20.30;99.90
4530;DHT22;2277;51.626;7.516;2023-07-20T02:05:17;20.30;99.90
4530;DHT22;2277;51.626;7.516;2023-07-20T02:07:43;20.30;99.90
4530;DHT22;2277;51.626;7.516;2023-07-20T02:10:09;20.30;99.90
4530;DHT22;2277;51.626;7.516;2023-07-20T02:12:35;20.30;99.90
4530;DHT22;2277;51.626;7.516;2023-07-20T02:15:04;20.30;99.90
4530;DHT22;2277;51.626;7.516;2023-07-20T02:17:29;20.30;99.90
4530;DHT22;2277;51.626;7.516;2023-07-20T02:19:56;20.30;99.90
4530;DHT22;2277;51.626;7.516;2023-07-20T02:22:23;20.30;99.90
4530;DHT22;2277;51.626;7.516;2023-07-20T02:24:49;20.30;99.90
4530;DHT22;2277;51.626;7.516;2023-07-20T02:27:15;20.30;99.90
4530;DHT22;2277;51.626;7.516;2023-07-20T02:29:41;20.30;99.90
4530;DHT22;2277;51.626;7.516;2023-07-20T02:32:08;20.30;99.90
4530;DHT22;2277;51.626;7.516;2023-07-20T02:34:35;20.30;99.90
4530;DHT22;2277;51.626;7.516;2023-07-20T02:37:01;20.30;99.90
4530;DHT22;2277;51.626;7.516;2023-07-20T02:39:29;20.30;99.90
4530;DHT22;2277;51.626;7.516;2023-07-20T02:41:55;20.30;99.90
4530;DHT22;2277;51.626;7.516;2023-07-20T02:44:21;20.20;99.90
4530;DHT22;2277;51.626;7.516;2023-07-20T02:46:46;20.20;99.90
4530;DHT22;2277;51.626;7.516;2023-07-20T02:49:12;20.10;99.90
4530;DHT22;2277;51.626;7.516;2023-07-20T02:51:37;20.10;99.90
4530;DHT22;2277;51.626;7.516;2023-07-20T02:54:03;20.00;99.90
4530;DHT22;2277;51.626;7.516;2023-07-20T02:56:29;20.00;99.90
4530;DHT22;2277;51.626;7.516;2023-07-20T02:58:55;20.00;99.90
4530;DHT22;2277;51.626;7.516;2023-07-20T03:01:20;20.00;99.90
4530;DHT22;2277;51.626;7.516;2023-07-20T03:03:46;20.00;99.90
4530;DHT22;2277;51.626;7.516;2023-07-20T03:06:15;20.00;99.90
4530;DHT22;2277;51.626;7.516;2023-07-20T03:08:44;19.90;99.90
4530;DHT22;2277;51.626;7.516;2023-07-20T03:11:13;19.90;99.90
4530;DHT22;2277;51.626;7.516;2023-07-20T03:13:39;19.90;99.90
4530;DHT22;2277;51.626;7.516;2023-07-20T03:16:05;19.90;99.90
4530;DHT22;2277;51.626;7.516;2023-07-20T03:18:30;19.90;99.90
4530;DHT22;2277;51.626;7.516;2023-07-20T03:20:56;19.90;99.90
4530;DHT22;2277;51.626;7.516;2023-07-20T03:23:22;19.80;99.90
4530;DHT22;2277;51.626;7.516;2023-07-20T03:25:47;19.80;99.90
4530;DHT22;2277;51.626;7.516;2023-07-20T03:28:13;19.80;99.90
4530;DHT22;2277;51.626;7.516;2023-07-20T03:30:38;19.90;99.90
4530;DHT22;2277;51.626;7.516;2023-07-20T03:33:04;19.80;99.90
4530;DHT22;2277;51.626;7.516;2023-07-20T03:35:30;19.80;99.90
4530;DHT22;2277;51.626;7.516;2023-07-20T03:37:56;19.80;99.90
4530;DHT22;2277;51.626;7.516;2023-07-20T03:40:22;19.80;99.90
4530;DHT22;2277;51.626;7.516;2023-07-20T03:42:48;19.80;99.90
4530;DHT22;2277;51.626;7.516;2023-07-20T03:45:13;19.80;99.90
4530;DHT22;2277;51.626;7.516;2023-07-20T03:47:39;19.80;99.90
4530;DHT22;2277;51.626;7.516;2023-07-20T03:50:05;19.80;99.90
4530;DHT22;2277;51.626;7.516;2023-07-20T03:52:31;19.80;99.90
4530;DHT22;2277;51.626;7.516;2023-07-20T03:54:56;19.80;99.90
4530;DHT22;2277;51.626;7.516;2023-07-20T03:57:22;19.80;99.90
4530;DHT22;2277;51.626;7.516;2023-07-20T03:59:48;19.80;99.90
4530;DHT22;2277;51.626;7.516;2023-07-20T04:02:13;19.80;99.90
4530;DHT22;2277;51.626;7.516;2023-07-20T04:04:39;19.70;99.90
4530;DHT22;2277;51.626;7.516;2023-07-20T04:07:05;19.70;99.90
4530;DHT22;2277;51.626;7.516;2023-07-20T04:09:31;19.80;99.90
4530;DHT22;2277;51.626;7.516;2023-07-20T04:11:57;19.70;99.90
4530;DHT22;2277;51.626;7.516;2023-07-20T04:14:23;19.70;99.90
4530;DHT22;2277;51.626;7.516;2023-07-20T04:16:48;19.70;99.90
4530;DHT22;2277;51.626;7.516;2023-07-20T04:19:14;19.70;99.90
4530;DHT22;2277;51.626;7.516;2023-07-20T04:21:40;19.70;99.90
4530;DHT22;2277;51.626;7.516;2023-07-20T04:24:07;19.60;99.90
4530;DHT22;2277;51.626;7.516;2023-07-20T04:26:32;19.60;99.90
4530;DHT22;2277;51.626;7.516;2023-07-20T04:28:58;19.70;99.90
4530;DHT22;2277;51.626;7.516;2023-07-20T04:31:24;19.60;99.90
4530;DHT22;2277;51.626;7.516;2023-07-20T04:33:50;19.60;99.90
4530;DHT22;2277;51.626;7.516;2023-07-20T04:36:16;19.60;99.90
4530;DHT22;2277;51.626;7.516;2023-07-20T04:38:45;19.60;99.90
4530;DHT22;2277;51.626;7.516;2023-07-20T04:41:11;19.60;99.90
4530;DHT22;2277;51.626;7.516;2023-07-20T04:43:41;19.60;99.90
4530;DHT22;2277;51.626;7.516;2023-07-20T04:46:06;19.60;99.90
4530;DHT22;2277;51.626;7.516;2023-07-20T04:48:32;19.60;99.90
4530;DHT22;2277;51.626;7.516;2023-07-20T04:50:57;19.50;99.90
4530;DHT22;2277;51.626;7.516;2023-07-20T04:53:23;19.50;99.90
4530;DHT22;2277;51.626;7.516;2023-07-20T04:55:49;19.60;99.90
4530;DHT22;2277;51.626;7.516;2023-07-20T04:58:20;19.60;99.90
4530;DHT22;2277;51.626;7.516;2023-07-20T05:00:46;19.60;99.90
4530;DHT22;2277;51.626;7.516;2023-07-20T05:03:12;19.60;99.90
4530;DHT22;2277;51.626;7.516;2023-07-20T05:05:37;19.60;99.90
4530;DHT22;2277;51.626;7.516;2023-07-20T05:08:04;19.60;99.90
4530;DHT22;2277;51.626;7.516;2023-07-20T05:10:29;19.60;99.90
4530;DHT22;2277;51.626;7.516;2023-07-20T05:12:55;19.50;99.90
4530;DHT22;2277;51.626;7.516;2023-07-20T05:15:20;19.60;99.90
4530;DHT22;2277;51.626;7.516;2023-07-20T05:17:46;19.50;99.90
4530;DHT22;2277;51.626;7.516;2023-07-20T05:20:14;19.50;99.90
4530;DHT22;2277;51.626;7.516;2023-07-20T05:22:40;19.50;99.90
4530;DHT22;2277;51.626;7.516;2023-07-20T05:25:07;19.50;99.90
4530;DHT22;2277;51.626;7.516;2023-07-20T05:27:34;19.50;99.90
4530;DHT22;2277;51.626;7.516;2023-07-20T05:30:00;19.50;99.90
4530;DHT22;2277;51.626;7.516;2023-07-20T05:32:25;19.50;99.90
4530;DHT22;2277;51.626;7.516;2023-07-20T05:34:54;19.50;99.90
4530;DHT22;2277;51.626;7.516;2023-07-20T05:37:20;19.50;99.90
4530;DHT22;2277;51.626;7.516;2023-07-20T05:39:46;19.50;99.90
4530;DHT22;2277;51.626;7.516;2023-07-20T05:42:12;19.50;99.90
4530;DHT22;2277;51.626;7.516;2023-07-20T05:44:37;19.50;99.90
4530;DHT22;2277;51.626;7.516;2023-07-20T05:47:03;19.50;99.90
4530;DHT22;2277;51.626;7.516;2023-07-20T05:49:29;19.50;99.90
4530;DHT22;2277;51.626;7.516;2023-07-20T05:51:55;19.50;99.90
4530;DHT22;2277;51.626;7.516;2023-07-20T05:54:21;19.50;99.90
4530;DHT22;2277;51.626;7.516;2023-07-20T05:56:47;19.50;99.90
4530;DHT22;2277;51.626;7.516;2023-07-20T05:59:13;19.50;99.90
4530;DHT22;2277;51.626;7.516;2023-07-20T06:01:38;19.50;99.90
4530;DHT22;2277;51.626;7.516;2023-07-20T06:04:04;19.40;99.90
4530;DHT22;2277;51.626;7.516;2023-07-20T06:06:29;19.50;99.90
4530;DHT22;2277;51.626;7.516;2023-07-20T06:08:55;19.60;99.90
4530;DHT22;2277;51.626;7.516;2023-07-20T06:11:21;19.60;99.90
4530;DHT22;2277;51.626;7.516;2023-07-20T06:13:46;19.60;99.90
4530;DHT22;2277;51.626;7.516;2023-07-20T06:16:12;19.70;99.90
4530;DHT22;2277;51.626;7.516;2023-07-20T06:18:37;19.60;99.90
4530;DHT22;2277;51.626;7.516;2023-07-20T06:21:03;19.70;99.90
4530;DHT22;2277;51.626;7.516;2023-07-20T06:23:29;19.70;99.90
4530;DHT22;2277;51.626;7.516;2023-07-20T06:25:55;19.80;99.90
4530;DHT22;2277;51.626;7.516;2023-07-20T06:28:20;19.80;99.90
4530;DHT22;2277;51.626;7.516;2023-07-20T06:30:46;19.80;99.90
4530;DHT22;2277;51.626;7.516;2023-07-20T06:33:11;19.80;99.90
4530;DHT22;2277;51.626;7.516;2023-07-20T06:35:37;19.90;99.90
4530;DHT22;2277;51.626;7.516;2023-07-20T06:38:03;19.90;99.90
4530;DHT22;2277;51.626;7.516;2023-07-20T06:40:29;19.90;99.90
4530;DHT22;2277;51.626;7.516;2023-07-20T06:42:55;19.80;99.90
4530;DHT22;2277;51.626;7.516;2023-07-20T06:45:21;19.90;99.90
4530;DHT22;2277;51.626;7.516;2023-07-20T06:47:46;19.90;99.90
4530;DHT22;2277;51.626;7.516;2023-07-20T06:50:12;20.00;99.90
4530;DHT22;2277;51.626;7.516;2023-07-20T06:52:38;20.00;99.90
4530;DHT22;2277;51.626;7.516;2023-07-20T06:55:05;20.00;99.90
4530;DHT22;2277;51.626;7.516;2023-07-20T06:57:32;20.00;99.90
4530;DHT22;2277;51.626;7.516;2023-07-20T06:59:57;20.00;99.90
4530;DHT22;2277;51.626;7.516;2023-07-20T07:02:23;20.10;99.90
4530;DHT22;2277;51.626;7.516;2023-07-20T07:04:48;20.20;99.90
4530;DHT22;2277;51.626;7.516;2023-07-20T07:07:14;20.30;99.90
4530;DHT22;2277;51.626;7.516;2023-07-20T07:09:41;20.30;99.90
4530;DHT22;2277;51.626;7.516;2023-07-20T07:12:07;20.50;99.90
4530;DHT22;2277;51.626;7.516;2023-07-20T07:14:33;20.50;99.90
4530;DHT22;2277;51.626;7.516;2023-07-20T07:16:58;20.50;99.90
4530;DHT22;2277;51.626;7.516;2023-07-20T07:19:24;20.70;99.90
4530;DHT22;2277;51.626;7.516;2023-07-20T07:21:49;20.80;99.90
4530;DHT22;2277;51.626;7.516;2023-07-20T07:24:15;20.90;99.90
4530;DHT22;2277;51.626;7.516;2023-07-20T07:26:41;21.10;99.90
4530;DHT22;2277;51.626;7.516;2023-07-20T07:29:06;21.20;99.90
4530;DHT22;2277;51.626;7.516;2023-07-20T07:31:34;21.40;99.90
4530;DHT22;2277;51.626;7.516;2023-07-20T07:34:00;21.50;99.90
4530;DHT22;2277;51.626;7.516;2023-07-20T07:36:26;21.70;99.90
4530;DHT22;2277;51.626;7.516;2023-07-20T07:38:51;21.70;99.90
4530;DHT22;2277;51.626;7.516;2023-07-20T07:41:17;21.80;99.90
4530;DHT22;2277;51.626;7.516;2023-07-20T07:43:42;21.80;99.90
4530;DHT22;2277;51.626;7.516;2023-07-20T07:46:08;21.80;99.90
4530;DHT22;2277;51.626;7.516;2023-07-20T07:48:34;21.80;99.90
4530;DHT22;2277;51.626;7.516;2023-07-20T07:50:59;21.80;99.90
4530;DHT22;2277;51.626;7.516;2023-07-20T07:53:25;21.80;99.90
4530;DHT22;2277;51.626;7.516;2023-07-20T07:55:51;21.80;99.90
4530;DHT22;2277;51.626;7.516;2023-07-20T07:58:17;21.80;99.90
4530;DHT22;2277;51.626;7.516;2023-07-20T08:00:43;21.80;99.90
4530;DHT22;2277;51.626;7.516;2023-07-20T08:03:10;21.90;99.90
4530;DHT22;2277;51.626;7.516;2023-07-20T08:05:36;21.90;99.90
4530;DHT22;2277;51.626;7.516;2023-07-20T08:08:02;22.10;99.90
4530;DHT22;2277;51.626;7.516;2023-07-20T08:10:29;22.20;99.90
4530;DHT22;2277;51.626;7.516;2023-07-20T08:12:55;22.40;99.90
4530;DHT22;2277;51.626;7.516;2023-07-20T08:15:20;22.50;99.90
4530;DHT22;2277;51.626;7.516;2023-07-20T08:17:46;22.70;99.90
4530;DHT22;2277;51.626;7.516;2023-07-20T08:20:14;22.80;99.90
4530;DHT22;2277;51.626;7.516;2023-07-20T08:22:41;22.90;99.90
4530;DHT22;2277;51.626;7.516;2023-07-20T08:25:08;23.10;99.90
4530;DHT22;2277;51.626;7.516;2023-07-20T08:27:34;23.20;99.90
4530;DHT22;2277;51.626;7.516;2023-07-20T08:30:00;23.40;99.90
4530;DHT22;2277;51.626;7.516;2023-07-20T08:32:26;23.30;99.90
4530;DHT22;2277;51.626;7.516;2023-07-20T08:34:51;23.30;99.90
4530;DHT22;2277;51.626;7.516;2023-07-20T08:37:17;23.30;99.90
4530;DHT22;2277;51.626;7.516;2023-07-20T08:39:42;23.40;99.90
4530;DHT22;2277;51.626;7.516;2023-07-20T08:42:09;23.50;99.90
4530;DHT22;2277;51.626;7.516;2023-07-20T08:44:38;23.70;99.90
4530;DHT22;2277;51.626;7.516;2023-07-20T08:47:06;23.70;99.90
4530;DHT22;2277;51.626;7.516;2023-07-20T08:49:32;23.90;99.90
4530;DHT22;2277;51.626;7.516;2023-07-20T08:51:59;24.00;99.90
4530;DHT22;2277;51.626;7.516;2023-07-20T08:54:29;24.30;99.90
4530;DHT22;2277;51.626;7.516;2023-07-20T08:56:58;24.50;99.90
4530;DHT22;2277;51.626;7.516;2023-07-20T08:59:27;24.50;99.90
4530;DHT22;2277;51.626;7.516;2023-07-20T09:01:56;24.50;99.90
4530;DHT22;2277;51.626;7.516;2023-07-20T09:04:22;24.50;99.90
4530;DHT22;2277;51.626;7.516;2023-07-20T09:06:49;24.40;99.90
4530;DHT22;2277;51.626;7.516;2023-07-20T09:09:15;24.40;99.90
4530;DHT22;2277;51.626;7.516;2023-07-20T09:11:41;24.50;99.90
4530;DHT22;2277;51.626;7.516;2023-07-20T09:14:07;24.70;99.90
4530;DHT22;2277;51.626;7.516;2023-07-20T09:16:47;24.90;99.90
4530;DHT22;2277;51.626;7.516;2023-07-20T09:19:17;24.90;99.90
4530;DHT22;2277;51.626;7.516;2023-07-20T09:21:47;25.00;99.90
4530;DHT22;2277;51.626;7.516;2023-07-20T09:24:14;25.20;99.90
4530;DHT22;2277;51.626;7.516;2023-07-20T09:26:44;25.30;99.90
4530;DHT22;2277;51.626;7.516;2023-07-20T09:29:10;25.50;99.90
4530;DHT22;2277;51.626;7.516;2023-07-20T09:31:36;25.70;99.90
4530;DHT22;2277;51.626;7.516;2023-07-20T09:34:02;25.90;99.90
4530;DHT22;2277;51.626;7.516;2023-07-20T09:36:32;25.90;99.90
4530;DHT22;2277;51.626;7.516;2023-07-20T09:38:59;25.80;99.90
4530;DHT22;2277;51.626;7.516;2023-07-20T09:41:24;26.00;99.90
4530;DHT22;2277;51.626;7.516;2023-07-20T09:43:51;26.10;99.90
4530;DHT22;2277;51.626;7.516;2023-07-20T09:46:16;26.20;99.90
4530;DHT22;2277;51.626;7.516;2023-07-20T09:48:54;26.30;99.90
4530;DHT22;2277;51.626;7.516;2023-07-20T09:51:23;26.50;99.90
4530;DHT22;2277;51.626;7.516;2023-07-20T09:53:53;26.70;99.90
4530;DHT22;2277;51.626;7.516;2023-07-20T09:56:21;26.80;95.90
4530;DHT22;2277;51.626;7.516;2023-07-20T09:58:48;26.90;96.60
4530;DHT22;2277;51.626;7.516;2023-07-20T10:01:17;27.10;97.10
4530;DHT22;2277;51.626;7.516;2023-07-20T10:03:45;27.30;95.80
4530;DHT22;2277;51.626;7.516;2023-07-20T10:06:14;27.40;94.50
4530;DHT22;2277;51.626;7.516;2023-07-20T10:08:41;27.20;90.60
4530;DHT22;2277;51.626;7.516;2023-07-20T10:11:08;27.30;90.80
4530;DHT22;2277;51.626;7.516;2023-07-20T10:13:38;27.50;93.60
4530;DHT22;2277;51.626;7.516;2023-07-20T10:16:10;27.70;95.50
4530;DHT22;2277;51.626;7.516;2023-07-20T10:21:17;27.70;90.60
4530;DHT22;2277;51.626;7.516;2023-07-20T10:23:45;27.50;90.70
4530;DHT22;2277;51.626;7.516;2023-07-20T10:26:11;27.50;91.60
4530;DHT22;2277;51.626;7.516;2023-07-20T10:28:38;27.60;90.80
4530;DHT22;2277;51.626;7.516;2023-07-20T10:31:03;27.80;89.90
4530;DHT22;2277;51.626;7.516;2023-07-20T10:33:29;27.90;90.30
4530;DHT22;2277;51.626;7.516;2023-07-20T10:36:03;28.10;90.90
4530;DHT22;2277;51.626;7.516;2023-07-20T10:41:20;28.00;87.30
4530;DHT22;2277;51.626;7.516;2023-07-20T10:43:48;27.80;87.10
4530;DHT22;2277;51.626;7.516;2023-07-20T10:46:14;27.70;85.80
4530;DHT22;2277;51.626;7.516;2023-07-20T10:49:00;27.80;87.80
4530;DHT22;2277;51.626;7.516;2023-07-20T10:51:28;27.80;87.50
4530;DHT22;2277;51.626;7.516;2023-07-20T10:53:58;27.90;89.60
4530;DHT22;2277;51.626;7.516;2023-07-20T10:56:27;28.10;90.40
4530;DHT22;2277;51.626;7.516;2023-07-20T10:58:59;28.00;87.90
4530;DHT22;2277;51.626;7.516;2023-07-20T11:01:28;27.90;87.20
4530;DHT22;2277;51.626;7.516;2023-07-20T11:03:58;28.00;86.10
4530;DHT22;2277;51.626;7.516;2023-07-20T11:11:34;28.20;80.70
4530;DHT22;2277;51.626;7.516;2023-07-20T11:14:01;28.30;81.90
4530;DHT22;2277;51.626;7.516;2023-07-20T11:19:03;28.00;80.20
4530;DHT22;2277;51.626;7.516;2023-07-20T11:21:36;28.10;81.90
4530;DHT22;2277;51.626;7.516;2023-07-20T11:24:06;28.30;80.90
4530;DHT22;2277;51.626;7.516;2023-07-20T11:26:43;28.50;75.60
4530;DHT22;2277;51.626;7.516;2023-07-20T11:29:08;28.50;79.10
4530;DHT22;2277;51.626;7.516;2023-07-20T11:31:41;28.60;80.60
4530;DHT22;2277;51.626;7.516;2023-07-20T11:34:11;28.70;82.80
4530;DHT22;2277;51.626;7.516;2023-07-20T11:36:41;28.90;82.30
4530;DHT22;2277;51.626;7.516;2023-07-20T11:39:10;29.10;82.10
4530;DHT22;2277;51.626;7.516;2023-07-20T11:41:37;29.40;83.30
4530;DHT22;2277;51.626;7.516;2023-07-20T11:44:04;29.50;77.60
4530;DHT22;2277;51.626;7.516;2023-07-20T11:46:32;29.80;75.90
4530;DHT22;2277;51.626;7.516;2023-07-20T11:48:58;29.80;73.00
4530;DHT22;2277;51.626;7.516;2023-07-20T11:51:32;29.80;78.20
4530;DHT22;2277;51.626;7.516;2023-07-20T11:53:58;29.80;75.30
4530;DHT22;2277;51.626;7.516;2023-07-20T11:56:25;29.90;74.70
4530;DHT22;2277;51.626;7.516;2023-07-20T11:58:54;30.00;71.80
4530;DHT22;2277;51.626;7.516;2023-07-20T12:01:20;30.20;74.00
4530;DHT22;2277;51.626;7.516;2023-07-20T12:03:47;30.30;73.50
4530;DHT22;2277;51.626;7.516;2023-07-20T12:06:13;30.50;66.70
4530;DHT22;2277;51.626;7.516;2023-07-20T12:08:42;30.60;68.20
4530;DHT22;2277;51.626;7.516;2023-07-20T12:11:08;30.70;64.90
4530;DHT22;2277;51.626;7.516;2023-07-20T12:13:37;30.80;68.60
4530;DHT22;2277;51.626;7.516;2023-07-20T12:16:19;31.00;66.40
4530;DHT22;2277;51.626;7.516;2023-07-20T12:18:45;31.10;63.90
4530;DHT22;2277;51.626;7.516;2023-07-20T12:21:11;31.10;64.40
4530;DHT22;2277;51.626;7.516;2023-07-20T12:23:40;31.30;63.80
4530;DHT22;2277;51.626;7.516;2023-07-20T12:26:10;31.30;61.80
4530;DHT22;2277;51.626;7.516;2023-07-20T12:28:44;31.30;59.40
4530;DHT22;2277;51.626;7.516;2023-07-20T12:31:10;31.10;58.50
4530;DHT22;2277;51.626;7.516;2023-07-20T12:33:37;31.30;60.00
4530;DHT22;2277;51.626;7.516;2023-07-20T12:36:04;31.20;59.40
4530;DHT22;2277;51.626;7.516;2023-07-20T12:38:30;31.40;57.00
4530;DHT22;2277;51.626;7.516;2023-07-20T12:41:00;31.50;57.90
4530;DHT22;2277;51.626;7.516;2023-07-20T12:43:26;31.60;57.30
4530;DHT22;2277;51.626;7.516;2023-07-20T12:45:52;31.80;57.80
4530;DHT22;2277;51.626;7.516;2023-07-20T12:48:18;31.80;55.10
4530;DHT22;2277;51.626;7.516;2023-07-20T12:50:43;31.90;56.70
4530;DHT22;2277;51.626;7.516;2023-07-20T12:53:09;31.70;53.90
4530;DHT22;2277;51.626;7.516;2023-07-20T12:55:35;31.60;55.00
4530;DHT22;2277;51.626;7.516;2023-07-20T12:58:00;31.40;54.50
4530;DHT22;2277;51.626;7.516;2023-07-20T13:00:26;31.30;54.90
4530;DHT22;2277;51.626;7.516;2023-07-20T13:02:52;31.30;54.70
4530;DHT22;2277;51.626;7.516;2023-07-20T13:05:17;31.30;56.10
4530;DHT22;2277;51.626;7.516;2023-07-20T13:07:43;31.30;55.00
4530;DHT22;2277;51.626;7.516;2023-07-20T13:10:10;31.30;56.30
4530;DHT22;2277;51.626;7.516;2023-07-20T13:12:37;31.30;55.90
4530;DHT22;2277;51.626;7.516;2023-07-20T13:15:04;31.30;54.40
4530;DHT22;2277;51.626;7.516;2023-07-20T13:17:31;31.50;54.90
4530;DHT22;2277;51.626;7.516;2023-07-20T13:19:57;31.40;53.30
4530;DHT22;2277;51.626;7.516;2023-07-20T13:22:23;31.20;54.40
4530;DHT22;2277;51.626;7.516;2023-07-20T13:24:49;31.20;51.90
4530;DHT22;2277;51.626;7.516;2023-07-20T13:27:18;31.00;52.30
4530;DHT22;2277;51.626;7.516;2023-07-20T13:29:45;31.00;55.40
4530;DHT22;2277;51.626;7.516;2023-07-20T13:32:13;31.10;55.30
4530;DHT22;2277;51.626;7.516;2023-07-20T13:34:40;31.20;56.10
4530;DHT22;2277;51.626;7.516;2023-07-20T13:37:06;31.30;56.90
4530;DHT22;2277;51.626;7.516;2023-07-20T13:39:32;31.50;55.70
4530;DHT22;2277;51.626;7.516;2023-07-20T13:41:57;31.60;53.60
4530;DHT22;2277;51.626;7.516;2023-07-20T13:44:23;31.80;51.40
4530;DHT22;2277;51.626;7.516;2023-07-20T13:46:49;31.90;52.60
4530;DHT22;2277;51.626;7.516;2023-07-20T13:49:15;31.90;53.40
4530;DHT22;2277;51.626;7.516;2023-07-20T13:51:42;31.70;52.00
4530;DHT22;2277;51.626;7.516;2023-07-20T13:54:08;31.70;51.10
4530;DHT22;2277;51.626;7.516;2023-07-20T13:56:34;31.60;51.80
4530;DHT22;2277;51.626;7.516;2023-07-20T13:59:00;31.60;54.00
4530;DHT22;2277;51.626;7.516;2023-07-20T14:01:26;31.80;54.20
4530;DHT22;2277;51.626;7.516;2023-07-20T14:03:53;31.80;50.50
4530;DHT22;2277;51.626;7.516;2023-07-20T14:06:19;31.40;51.00
4530;DHT22;2277;51.626;7.516;2023-07-20T14:08:45;31.40;52.80
4530;DHT22;2277;51.626;7.516;2023-07-20T14:11:12;31.50;52.60
4530;DHT22;2277;51.626;7.516;2023-07-20T14:13:38;31.30;50.80
4530;DHT22;2277;51.626;7.516;2023-07-20T14:16:04;31.20;51.60
4530;DHT22;2277;51.626;7.516;2023-07-20T14:18:30;31.20;53.30
4530;DHT22;2277;51.626;7.516;2023-07-20T14:20:55;31.10;53.20
4530;DHT22;2277;51.626;7.516;2023-07-20T14:23:21;31.00;53.10
4530;DHT22;2277;51.626;7.516;2023-07-20T14:25:47;30.90;54.00
4530;DHT22;2277;51.626;7.516;2023-07-20T14:28:13;30.90;54.00
4530;DHT22;2277;51.626;7.516;2023-07-20T14:30:39;30.80;54.50
4530;DHT22;2277;51.626;7.516;2023-07-20T14:33:04;30.80;54.20
4530;DHT22;2277;51.626;7.516;2023-07-20T14:35:30;30.50;53.80
4530;DHT22;2277;51.626;7.516;2023-07-20T14:37:55;30.30;54.80
4530;DHT22;2277;51.626;7.516;2023-07-20T14:40:21;30.20;54.50
4530;DHT22;2277;51.626;7.516;2023-07-20T14:42:47;30.00;55.00
4530;DHT22;2277;51.626;7.516;2023-07-20T14:45:13;29.80;55.50
4530;DHT22;2277;51.626;7.516;2023-07-20T14:47:39;29.70;56.00
4530;DHT22;2277;51.626;7.516;2023-07-20T14:50:05;29.70;56.70
4530;DHT22;2277;51.626;7.516;2023-07-20T14:52:31;29.90;56.90
4530;DHT22;2277;51.626;7.516;2023-07-20T14:54:57;30.00;55.50
4530;DHT22;2277;51.626;7.516;2023-07-20T14:57:22;30.00;55.70
4530;DHT22;2277;51.626;7.516;2023-07-20T14:59:52;30.00;55.60
4530;DHT22;2277;51.626;7.516;2023-07-20T15:02:18;30.00;56.00
4530;DHT22;2277;51.626;7.516;2023-07-20T15:04:51;29.90;56.30
4530;DHT22;2277;51.626;7.516;2023-07-20T15:07:18;29.80;56.60
4530;DHT22;2277;51.626;7.516;2023-07-20T15:09:44;29.80;56.30
4530;DHT22;2277;51.626;7.516;2023-07-20T15:12:10;29.80;56.90
4530;DHT22;2277;51.626;7.516;2023-07-20T15:14:39;29.70;57.60
4530;DHT22;2277;51.626;7.516;2023-07-20T15:17:05;29.60;56.60
4530;DHT22;2277;51.626;7.516;2023-07-20T15:19:31;29.50;56.50
4530;DHT22;2277;51.626;7.516;2023-07-20T15:21:56;29.40;54.60
4530;DHT22;2277;51.626;7.516;2023-07-20T15:24:22;29.20;56.50
4530;DHT22;2277;51.626;7.516;2023-07-20T15:26:47;29.10;57.00
4530;DHT22;2277;51.626;7.516;2023-07-20T15:29:13;28.90;57.80
4530;DHT22;2277;51.626;7.516;2023-07-20T15:31:39;28.80;55.90
4530;DHT22;2277;51.626;7.516;2023-07-20T15:34:04;28.70;56.30
4530;DHT22;2277;51.626;7.516;2023-07-20T15:36:30;28.60;57.80
4530;DHT22;2277;51.626;7.516;2023-07-20T15:38:56;28.60;58.10
4530;DHT22;2277;51.626;7.516;2023-07-20T15:41:22;28.50;57.90
4530;DHT22;2277;51.626;7.516;2023-07-20T15:43:47;28.40;59.00
4530;DHT22;2277;51.626;7.516;2023-07-20T15:48:48;28.40;61.00
4530;DHT22;2277;51.626;7.516;2023-07-20T15:51:14;28.40;59.40
4530;DHT22;2277;51.626;7.516;2023-07-20T15:53:40;28.60;59.20
4530;DHT22;2277;51.626;7.516;2023-07-20T15:56:05;28.60;59.80
4530;DHT22;2277;51.626;7.516;2023-07-20T15:58:34;28.50;59.50
4530;DHT22;2277;51.626;7.516;2023-07-20T16:00:59;28.50;59.70
4530;DHT22;2277;51.626;7.516;2023-07-20T16:03:25;28.50;59.70
4530;DHT22;2277;51.626;7.516;2023-07-20T16:05:53;28.50;60.60
4530;DHT22;2277;51.626;7.516;2023-07-20T16:08:19;28.50;60.90
4530;DHT22;2277;51.626;7.516;2023-07-20T16:10:45;28.60;61.30
4530;DHT22;2277;51.626;7.516;2023-07-20T16:13:10;28.70;58.90
4530;DHT22;2277;51.626;7.516;2023-07-20T16:15:36;28.70;58.70
4530;DHT22;2277;51.626;7.516;2023-07-20T16:18:02;28.70;59.40
4530;DHT22;2277;51.626;7.516;2023-07-20T16:20:27;28.60;59.30
4530;DHT22;2277;51.626;7.516;2023-07-20T16:22:53;28.50;57.40